createdAt,value
2019-05-10T00:01:17.378Z,2.60
2019-05-10T00:04:03.347Z,2.90
2019-05-10T00:06:48.941Z,2.72
2019-05-10T00:09:15.391Z,2.90
2019-05-10T00:12:08.388Z,3.15
2019-05-10T00:15:01.147Z,3.05
2019-05-10T00:17:29.111Z,2.33
2019-05-10T00:19:57.091Z,2.77
2019-05-10T00:22:25.081Z,2.62
2019-05-10T00:25:03.056Z,2.70
2019-05-10T00:27:22.600Z,2.80
2019-05-10T00:29:50.515Z,2.85
2019-05-10T00:32:18.507Z,2.70
2019-05-10T00:34:46.372Z,2.80
2019-05-10T00:37:14.248Z,2.83
2019-05-10T00:39:42.246Z,2.60
2019-05-10T00:42:10.118Z,2.85
2019-05-10T00:44:38.082Z,2.72
2019-05-10T00:47:05.956Z,2.98
2019-05-10T00:49:33.814Z,2.40
2019-05-10T00:52:01.770Z,2.80
2019-05-10T00:54:29.654Z,2.70
2019-05-10T00:56:57.563Z,2.80
2019-05-10T00:59:25.423Z,2.80
2019-05-10T01:01:53.312Z,2.70
2019-05-10T01:04:21.276Z,2.58
2019-05-10T01:06:49.230Z,2.60
2019-05-10T01:09:17.166Z,2.55
2019-05-10T01:11:45.018Z,3.08
2019-05-10T01:14:12.981Z,2.60
2019-05-10T01:16:40.882Z,2.90
2019-05-10T01:19:08.747Z,2.50
2019-05-10T01:21:36.661Z,3.10
2019-05-10T01:24:04.503Z,2.90
2019-05-10T01:26:32.391Z,3.20
2019-05-10T01:29:00.366Z,3.42
2019-05-10T01:31:28.337Z,3.17
2019-05-10T01:33:56.175Z,3.25
2019-05-10T01:36:24.393Z,3.22
2019-05-10T01:38:52.246Z,3.35
2019-05-10T01:41:20.421Z,3.50
2019-05-10T01:43:48.296Z,3.45
2019-05-10T01:46:16.264Z,4.22
2019-05-10T01:48:44.132Z,4.53
2019-05-10T01:51:12.004Z,4.55
2019-05-10T01:53:39.919Z,4.30
2019-05-10T01:56:07.942Z,4.40
2019-05-10T01:58:35.824Z,3.83
2019-05-10T02:01:03.723Z,4.20
2019-05-10T02:03:31.627Z,4.37
2019-05-10T02:05:59.573Z,4.00
2019-05-10T02:08:27.456Z,4.00
2019-05-10T02:10:55.432Z,3.85
2019-05-10T02:13:23.543Z,4.05
2019-05-10T02:15:51.598Z,3.70
2019-05-10T02:18:19.608Z,3.98
2019-05-10T02:20:47.645Z,3.83
2019-05-10T02:23:15.517Z,3.80
2019-05-10T02:25:43.434Z,3.83
2019-05-10T02:28:11.335Z,3.65
2019-05-10T02:30:39.298Z,3.72
2019-05-10T02:33:07.195Z,3.77
2019-05-10T02:35:35.184Z,3.65
2019-05-10T02:38:03.136Z,3.70
2019-05-10T02:40:31.139Z,3.25
2019-05-10T02:42:59.161Z,3.27
2019-05-10T02:45:27.195Z,3.55
2019-05-10T02:47:55.074Z,4.30
2019-05-10T02:50:22.964Z,4.00
2019-05-10T02:52:50.829Z,4.10
2019-05-10T02:55:18.828Z,4.30
2019-05-10T02:57:46.696Z,4.10
2019-05-10T03:00:14.655Z,4.25
2019-05-10T03:02:42.587Z,4.00
2019-05-10T03:05:10.474Z,3.52
2019-05-10T03:07:38.828Z,3.60
2019-05-10T03:10:06.708Z,3.70
2019-05-10T03:12:34.559Z,3.80
2019-05-10T03:15:02.462Z,3.50
2019-05-10T03:17:30.325Z,3.37
2019-05-10T03:19:58.355Z,3.98
2019-05-10T03:22:26.921Z,3.80
2019-05-10T03:24:54.960Z,3.98
2019-05-10T03:27:22.892Z,3.67
2019-05-10T03:29:50.924Z,3.75
2019-05-10T03:32:18.861Z,3.67
2019-05-10T03:34:46.763Z,3.20
2019-05-10T03:37:14.646Z,3.42
2019-05-10T03:39:42.537Z,3.52
2019-05-10T03:42:10.502Z,3.55
2019-05-10T03:44:38.374Z,3.60
2019-05-10T03:47:06.328Z,3.50
2019-05-10T03:49:34.351Z,3.65
2019-05-10T03:52:02.491Z,3.60
2019-05-10T03:54:30.525Z,3.45
2019-05-10T03:57:12.162Z,3.83
2019-05-10T03:59:28.013Z,3.85
2019-05-10T04:01:55.916Z,3.80
2019-05-10T04:04:23.970Z,3.72
2019-05-10T04:06:51.963Z,3.95
2019-05-10T04:09:19.997Z,3.80
2019-05-10T04:11:47.992Z,4.55
2019-05-10T04:14:15.917Z,4.75
2019-05-10T04:16:43.762Z,4.10
2019-05-10T04:19:11.638Z,5.08
2019-05-10T04:21:39.539Z,5.28
2019-05-10T04:24:07.458Z,5.42
2019-05-10T04:26:35.333Z,5.87
2019-05-10T04:29:03.214Z,5.42
2019-05-10T04:31:31.176Z,5.20
2019-05-10T04:33:59.084Z,5.60
2019-05-10T04:36:27.046Z,4.90
2019-05-10T04:38:54.969Z,5.58
2019-05-10T04:41:22.828Z,5.05
2019-05-10T04:43:50.698Z,5.20
2019-05-10T04:46:18.537Z,5.45
2019-05-10T04:48:46.418Z,5.70
2019-05-10T04:51:14.301Z,5.12
2019-05-10T04:53:42.301Z,5.33
2019-05-10T04:56:10.194Z,5.00
2019-05-10T04:58:38.067Z,5.30
2019-05-10T05:01:05.926Z,4.83
2019-05-10T05:03:33.761Z,5.03
2019-05-10T05:06:01.679Z,5.10
2019-05-10T05:08:29.638Z,4.65
2019-05-10T05:10:57.596Z,4.92
2019-05-10T05:13:25.441Z,4.53
2019-05-10T05:15:53.318Z,4.97
2019-05-10T05:18:21.249Z,4.90
2019-05-10T05:20:49.168Z,4.58
2019-05-10T05:23:17.025Z,4.40
2019-05-10T05:25:44.930Z,4.28
2019-05-10T05:28:12.795Z,4.87
2019-05-10T05:30:40.651Z,4.40
2019-05-10T05:33:08.496Z,4.40
2019-05-10T05:35:36.366Z,4.20
2019-05-10T05:38:04.222Z,4.20
2019-05-10T05:40:32.096Z,4.37
2019-05-10T05:43:02.741Z,4.25
2019-05-10T05:45:34.178Z,4.35
2019-05-10T05:47:59.213Z,4.60
2019-05-10T05:50:27.095Z,5.17
2019-05-10T05:52:55.106Z,4.97
2019-05-10T05:55:23.417Z,4.60
2019-05-10T05:57:51.477Z,4.70
2019-05-10T06:00:19.407Z,4.03
2019-05-10T06:02:47.355Z,4.28
2019-05-10T06:05:32.222Z,4.12
2019-05-10T06:07:44.826Z,4.30
2019-05-10T06:10:17.073Z,5.30
2019-05-10T06:12:44.562Z,4.72
2019-05-10T06:15:11.934Z,4.78
2019-05-10T06:17:39.892Z,4.12
2019-05-10T06:20:07.935Z,4.75
2019-05-10T06:22:38.157Z,4.55
2019-05-10T06:25:05.504Z,4.87
2019-05-10T06:27:35.308Z,4.70
2019-05-10T06:30:02.984Z,3.87
2019-05-10T06:32:30.809Z,4.62
2019-05-10T06:34:58.860Z,4.40
2019-05-10T06:37:26.708Z,3.90
2019-05-10T06:39:54.632Z,4.60
2019-05-10T06:42:22.488Z,4.20
2019-05-10T06:44:50.365Z,3.80
2019-05-10T06:47:21.690Z,3.87
2019-05-10T06:49:52.011Z,3.35
2019-05-10T06:52:21.969Z,3.20
2019-05-10T06:54:47.212Z,3.10
2019-05-10T06:57:17.707Z,2.90
2019-05-10T06:59:44.758Z,2.65
2019-05-10T07:02:12.630Z,2.77
2019-05-10T07:04:41.314Z,2.67
2019-05-10T07:07:18.331Z,2.65
2019-05-10T07:10:01.650Z,2.60
2019-05-10T07:12:09.285Z,2.87
2019-05-10T07:14:45.552Z,2.55
2019-05-10T07:17:08.015Z,2.45
2019-05-10T07:19:41.951Z,2.30
2019-05-10T07:22:05.528Z,2.37
2019-05-10T07:24:33.425Z,2.50
2019-05-10T07:27:02.807Z,2.27
2019-05-10T07:29:41.904Z,2.33
2019-05-10T07:32:00.582Z,2.25
2019-05-10T07:34:28.447Z,2.20
2019-05-10T07:36:56.309Z,2.47
2019-05-10T07:39:24.243Z,2.30
2019-05-10T07:41:52.233Z,2.47
2019-05-10T07:44:20.150Z,2.20
2019-05-10T07:46:54.272Z,2.20
2019-05-10T07:49:17.682Z,2.20
2019-05-10T07:51:45.565Z,2.10
2019-05-10T07:54:13.533Z,1.60
2019-05-10T07:56:45.745Z,1.80
2019-05-10T07:59:16.438Z,1.70
2019-05-10T08:01:40.605Z,1.92
2019-05-10T08:04:08.955Z,1.87
2019-05-10T08:06:43.534Z,1.90
2019-05-10T08:09:09.693Z,2.20
2019-05-10T08:11:39.060Z,1.77
2019-05-10T08:14:10.996Z,2.10
2019-05-10T08:16:38.608Z,1.72
2019-05-10T08:19:06.025Z,1.65
2019-05-10T08:21:33.950Z,1.77
2019-05-10T08:24:07.223Z,1.90
2019-05-10T08:26:32.830Z,2.00
2019-05-10T08:29:02.085Z,1.62
2019-05-10T08:31:33.805Z,1.80
2019-05-10T08:34:02.088Z,1.42
2019-05-10T08:36:29.252Z,1.30
2019-05-10T08:39:07.010Z,1.40
2019-05-10T08:41:26.710Z,1.32
2019-05-10T08:43:54.668Z,1.40
2019-05-10T08:46:28.637Z,1.60
2019-05-10T08:48:53.939Z,1.50
2019-05-10T08:51:22.742Z,1.40
2019-05-10T08:53:55.931Z,1.27
2019-05-10T08:56:23.875Z,1.20
2019-05-10T08:58:50.030Z,1.40
2019-05-10T09:01:26.766Z,1.30
2019-05-10T09:03:55.234Z,1.32
2019-05-10T09:06:17.313Z,1.30
2019-05-10T09:08:45.540Z,1.40
2019-05-10T09:11:13.487Z,1.30
2019-05-10T09:13:45.927Z,1.22
2019-05-10T09:16:13.487Z,1.15
2019-05-10T09:18:46.607Z,1.72
2019-05-10T09:21:11.543Z,1.40
2019-05-10T09:23:42.496Z,1.40
2019-05-10T09:26:15.698Z,1.30
2019-05-10T09:28:39.188Z,1.12
2019-05-10T09:31:18.766Z,1.05
2019-05-10T09:33:43.381Z,1.07
2019-05-10T09:36:06.181Z,1.00
2019-05-10T09:38:39.108Z,1.00
2019-05-10T09:41:03.667Z,1.00
2019-05-10T09:43:32.082Z,1.17
2019-05-10T09:46:02.523Z,1.00
2019-05-10T09:48:29.735Z,0.90
2019-05-10T09:51:00.780Z,0.90
2019-05-10T09:53:30.449Z,1.10
2019-05-10T09:56:02.646Z,1.00
2019-05-10T09:58:28.468Z,1.22
2019-05-10T10:01:12.878Z,1.22
2019-05-10T10:03:29.660Z,0.90
2019-05-10T10:06:05.191Z,1.00
2019-05-10T10:08:25.348Z,1.20
2019-05-10T10:10:53.193Z,0.90
2019-05-10T10:13:38.911Z,1.30
2019-05-10T10:15:52.479Z,1.20
2019-05-10T10:18:25.065Z,1.30
2019-05-10T10:20:50.091Z,1.02
2019-05-10T10:23:17.953Z,1.35
2019-05-10T10:25:48.210Z,1.10
2019-05-10T10:28:19.119Z,1.35
2019-05-10T10:30:52.682Z,1.00
2019-05-10T10:33:20.960Z,1.20
2019-05-10T10:35:47.911Z,1.60
2019-05-10T10:38:14.747Z,1.40
2019-05-10T10:40:46.240Z,1.30
2019-05-10T10:43:17.829Z,1.12
2019-05-10T10:45:43.816Z,1.37
2019-05-10T10:48:13.007Z,1.35
2019-05-10T10:50:44.169Z,1.30
2019-05-10T10:53:13.204Z,1.20
2019-05-10T10:55:40.663Z,1.40
2019-05-10T10:58:10.134Z,2.00
2019-05-10T11:00:39.150Z,1.50
2019-05-10T11:03:07.214Z,1.30
2019-05-10T11:05:35.210Z,1.50
2019-05-10T11:08:03.077Z,1.20
2019-05-10T11:10:31.330Z,1.27
2019-05-10T11:13:02.847Z,1.25
2019-05-10T11:15:35.552Z,1.25
2019-05-10T11:18:00.492Z,1.17
2019-05-10T11:20:28.393Z,0.90
2019-05-10T11:22:56.234Z,1.02
2019-05-10T11:25:24.114Z,1.12
2019-05-10T11:27:56.426Z,1.20
2019-05-10T11:30:21.628Z,1.32
2019-05-10T11:32:49.635Z,1.60
2019-05-10T11:35:27.792Z,1.20
2019-05-10T11:37:47.063Z,1.37
2019-05-10T11:40:17.993Z,1.20
2019-05-10T11:42:47.517Z,1.32
2019-05-10T11:45:14.216Z,1.30
2019-05-10T11:47:42.073Z,1.27
2019-05-10T11:50:10.625Z,1.15
2019-05-10T11:52:40.786Z,1.32
2019-05-10T11:55:08.452Z,1.37
2019-05-10T11:57:36.399Z,1.30
2019-05-10T12:00:04.463Z,1.42
2019-05-10T12:02:42.078Z,1.42
2019-05-10T12:05:10.808Z,1.20
2019-05-10T12:12:50.120Z,1.25
2019-05-10T12:15:04.414Z,1.32
2019-05-10T12:17:30.573Z,1.35
2019-05-10T12:19:58.414Z,1.47
2019-05-10T12:22:32.118Z,1.10
2019-05-10T12:25:20.539Z,1.40
2019-05-10T12:26:18.021Z,1.50
2019-05-10T12:26:50.609Z,1.50
2019-05-10T12:27:35.991Z,1.25
2019-05-10T12:29:59.541Z,1.05
2019-05-10T12:32:27.093Z,1.20
2019-05-10T12:34:56.617Z,1.00
2019-05-10T12:37:24.120Z,1.20
2019-05-10T12:39:53.202Z,1.22
2019-05-10T12:42:21.864Z,1.05
2019-05-10T12:44:51.620Z,1.00
2019-05-10T12:47:22.441Z,1.05
2019-05-10T12:49:53.899Z,1.30
2019-05-10T12:52:22.033Z,1.05
2019-05-10T12:54:49.685Z,1.05
2019-05-10T12:57:20.645Z,1.10
2019-05-10T12:59:48.581Z,1.30
2019-05-10T13:02:16.459Z,1.20
2019-05-10T13:04:52.606Z,1.30
2019-05-10T13:07:19.325Z,1.50
2019-05-10T13:09:49.924Z,1.10
2019-05-10T13:12:19.229Z,1.20
2019-05-10T13:14:51.919Z,1.10
2019-05-10T13:17:17.012Z,1.00
2019-05-10T13:19:45.278Z,1.17
2019-05-10T13:22:13.375Z,1.05
2019-05-10T13:24:41.418Z,1.20
2019-05-10T13:27:09.402Z,1.15
2019-05-10T13:29:40.784Z,1.00
2019-05-10T13:32:07.054Z,1.20
2019-05-10T13:34:35.002Z,1.05
2019-05-10T13:37:03.012Z,1.00
2019-05-10T13:39:31.000Z,1.10
2019-05-10T13:42:03.219Z,1.20
2019-05-10T13:44:28.526Z,0.90
2019-05-10T13:46:56.554Z,1.00
2019-05-10T13:49:24.626Z,1.00
2019-05-10T13:51:52.680Z,1.00
2019-05-10T13:54:20.620Z,1.20
2019-05-10T13:56:52.257Z,1.00
2019-05-10T13:59:18.205Z,1.15
2019-05-10T14:01:49.764Z,1.20
2019-05-10T14:04:15.932Z,2.05
2019-05-10T14:06:43.796Z,1.87
2019-05-10T14:09:11.768Z,0.98
2019-05-10T14:11:40.393Z,1.20
2019-05-10T14:14:14.693Z,1.00
2019-05-10T14:16:38.939Z,1.10
2019-05-10T14:19:09.704Z,1.07
2019-05-10T14:21:37.647Z,1.00
2019-05-10T14:24:09.009Z,1.10
2019-05-10T14:26:35.225Z,0.98
2019-05-10T14:29:03.190Z,1.00
2019-05-10T14:31:31.262Z,0.98
2019-05-10T14:34:14.502Z,1.10
2019-05-10T14:36:34.227Z,1.20
2019-05-10T14:38:58.561Z,1.25
2019-05-10T14:41:28.584Z,1.25
2019-05-10T14:43:56.513Z,1.00
2019-05-10T14:46:24.539Z,1.32
2019-05-10T14:48:52.656Z,1.20
2019-05-10T14:51:20.671Z,1.30
2019-05-10T14:53:48.573Z,1.20
2019-05-10T14:56:16.511Z,1.27
2019-05-10T14:58:44.577Z,1.30
2019-05-10T15:01:12.543Z,1.62
2019-05-10T15:03:45.444Z,1.30
2019-05-10T15:06:10.201Z,1.10
2019-05-10T15:08:38.097Z,1.10
2019-05-10T15:11:06.038Z,1.10
2019-05-10T15:13:35.260Z,1.20
2019-05-10T15:16:07.386Z,1.20
2019-05-10T15:18:33.212Z,2.15
2019-05-10T15:21:01.274Z,1.47
2019-05-10T15:23:29.281Z,1.20
2019-05-10T15:26:03.651Z,1.30
2019-05-10T15:28:26.895Z,0.98
2019-05-10T15:30:54.809Z,1.20
2019-05-10T15:33:22.679Z,1.10
2019-05-10T15:35:51.685Z,1.20
2019-05-10T15:38:20.402Z,1.50
2019-05-10T15:40:48.438Z,1.17
2019-05-10T15:43:18.673Z,2.40
2019-05-10T15:45:52.185Z,1.80
2019-05-10T15:48:15.701Z,1.35
2019-05-10T15:50:43.632Z,1.30
2019-05-10T15:53:11.600Z,2.10
2019-05-10T15:55:39.652Z,1.60
2019-05-10T15:58:07.652Z,1.30
2019-05-10T16:00:39.072Z,1.40
2019-05-10T16:03:05.106Z,1.20
2019-05-10T16:05:43.006Z,1.10
2019-05-10T16:08:02.709Z,1.30
2019-05-10T16:10:38.752Z,1.20
2019-05-10T16:13:00.195Z,1.10
2019-05-10T16:15:28.090Z,1.10
2019-05-10T16:17:59.748Z,1.27
2019-05-10T16:20:25.666Z,1.20
2019-05-10T16:22:53.572Z,1.20
2019-05-10T16:25:21.466Z,1.10
2019-05-10T16:27:49.321Z,1.40
2019-05-10T16:30:20.134Z,1.50
2019-05-10T16:32:46.906Z,1.10
2019-05-10T16:35:14.937Z,1.30
2019-05-10T16:37:42.877Z,1.20
2019-05-10T16:40:10.725Z,1.22
2019-05-10T16:42:38.729Z,2.30
2019-05-10T16:45:06.690Z,1.40
2019-05-10T16:47:34.651Z,1.10
2019-05-10T16:50:02.571Z,1.50
2019-05-10T16:52:30.449Z,0.93
2019-05-10T16:55:03.457Z,1.10
2019-05-10T16:57:32.163Z,1.27
2019-05-10T17:00:01.981Z,1.05
2019-05-10T17:02:27.198Z,1.17
2019-05-10T17:04:55.120Z,1.40
2019-05-10T17:07:23.071Z,1.10
2019-05-10T17:09:54.619Z,1.20
2019-05-10T17:12:22.106Z,1.00
2019-05-10T17:14:55.449Z,1.42
2019-05-10T17:17:19.967Z,1.72
2019-05-10T17:19:47.961Z,1.27
2019-05-10T17:22:15.832Z,1.30
2019-05-10T17:24:43.881Z,1.22
2019-05-10T17:27:11.880Z,1.20
2019-05-10T17:29:44.596Z,1.45
2019-05-10T17:32:09.544Z,1.50
2019-05-10T17:34:37.576Z,1.30
2019-05-10T17:37:05.535Z,1.37
2019-05-10T17:39:34.259Z,1.15
2019-05-10T17:42:03.225Z,1.15
2019-05-10T17:44:31.946Z,0.88
2019-05-10T17:46:59.992Z,0.93
2019-05-10T17:49:27.956Z,1.20
2019-05-10T17:51:58.102Z,1.00
2019-05-10T17:54:26.054Z,1.02
2019-05-10T17:56:54.016Z,1.20
2019-05-10T17:59:21.897Z,0.80
2019-05-10T18:01:49.918Z,1.10
2019-05-10T18:04:17.807Z,1.17
2019-05-10T18:06:45.751Z,1.72
2019-05-10T18:09:13.647Z,1.40
2019-05-10T18:11:43.123Z,1.22
2019-05-10T18:14:12.622Z,1.20
2019-05-10T18:16:41.948Z,1.30
2019-05-10T18:19:10.475Z,1.52
2019-05-10T18:21:38.338Z,1.37
2019-05-10T18:24:06.204Z,1.60
2019-05-10T18:26:39.124Z,1.80
2019-05-10T18:29:03.745Z,1.70
2019-05-10T18:31:31.571Z,1.55
2019-05-10T18:33:59.534Z,2.67
2019-05-10T18:36:50.427Z,1.70
2019-05-10T18:38:57.019Z,1.67
2019-05-10T18:41:25.010Z,1.80
2019-05-10T18:43:52.999Z,2.10
2019-05-10T18:46:20.874Z,1.60
2019-05-10T18:48:48.753Z,1.50
2019-05-10T18:51:18.093Z,1.80
2019-05-10T18:53:46.438Z,2.98
2019-05-10T18:56:14.478Z,2.37
2019-05-10T18:58:42.403Z,2.25
2019-05-10T19:01:10.322Z,2.30
2019-05-10T19:03:38.395Z,1.90
2019-05-10T19:06:10.989Z,1.82
2019-05-10T19:08:36.151Z,2.00
2019-05-10T19:11:04.656Z,2.40
2019-05-10T19:13:34.753Z,2.15
2019-05-10T19:16:02.687Z,1.77
2019-05-10T19:18:30.631Z,1.42
2019-05-10T19:20:58.583Z,1.52
2019-05-10T19:23:26.456Z,1.40
2019-05-10T19:25:54.343Z,1.42
2019-05-10T19:28:26.790Z,1.30
2019-05-10T19:30:52.866Z,1.22
2019-05-10T19:33:21.580Z,1.52
2019-05-10T19:35:49.471Z,1.60
2019-05-10T19:38:17.442Z,1.62
2019-05-10T19:40:45.415Z,1.52
2019-05-10T19:43:15.140Z,1.55
2019-05-10T19:45:42.987Z,1.27
2019-05-10T19:48:10.871Z,1.50
2019-05-10T19:50:38.739Z,1.27
2019-05-10T19:53:06.648Z,1.42
2019-05-10T19:55:34.502Z,1.50
2019-05-10T19:58:02.414Z,1.67
2019-05-10T20:00:30.302Z,1.37
2019-05-10T20:02:58.284Z,1.40
2019-05-10T20:05:26.351Z,1.72
2019-05-10T20:07:54.318Z,1.50
2019-05-10T20:10:22.306Z,1.70
2019-05-10T20:12:50.251Z,1.40
2019-05-10T20:15:18.218Z,1.87
2019-05-10T20:17:46.230Z,1.60
2019-05-10T20:20:14.430Z,1.72
2019-05-10T20:22:42.399Z,1.75
2019-05-10T20:25:10.305Z,2.02
2019-05-10T20:27:39.365Z,1.80
2019-05-10T20:30:08.400Z,2.00
2019-05-10T20:32:36.376Z,1.80
2019-05-10T20:35:04.378Z,1.90
2019-05-10T20:37:32.267Z,1.80
2019-05-10T20:40:00.216Z,1.60
2019-05-10T20:42:28.138Z,1.82
2019-05-10T20:45:06.633Z,2.00
2019-05-10T20:47:26.893Z,1.80
2019-05-10T20:49:54.784Z,1.70
2019-05-10T20:52:22.840Z,1.90
2019-05-10T20:54:50.800Z,2.10
2019-05-10T20:57:18.635Z,1.87
2019-05-10T20:59:46.522Z,1.90
2019-05-10T21:02:14.527Z,1.92
2019-05-10T21:04:42.423Z,2.10
2019-05-10T21:07:10.327Z,2.10
2019-05-10T21:09:38.456Z,2.15
2019-05-10T21:12:08.236Z,2.00
2019-05-10T21:14:36.164Z,1.80
2019-05-10T21:17:04.180Z,1.95
2019-05-10T21:19:34.121Z,2.10
2019-05-10T21:22:02.085Z,2.22
2019-05-10T21:24:33.299Z,1.77
2019-05-10T21:27:03.320Z,2.33
2019-05-10T21:29:31.213Z,1.95
2019-05-10T21:32:01.930Z,2.22
2019-05-10T21:34:29.912Z,2.25
2019-05-10T21:36:57.830Z,2.37
2019-05-10T21:39:25.686Z,2.40
2019-05-10T21:41:53.650Z,2.60
2019-05-10T21:44:21.523Z,2.17
2019-05-10T21:46:53.044Z,2.20
2019-05-10T21:49:19.085Z,2.10
2019-05-10T21:51:47.090Z,2.70
2019-05-10T21:54:15.053Z,2.25
2019-05-10T21:56:42.967Z,2.42
2019-05-10T21:59:10.996Z,2.60
2019-05-10T22:01:38.953Z,2.42
2019-05-10T22:04:06.802Z,2.40
2019-05-10T22:06:34.743Z,2.22
2019-05-10T22:09:04.798Z,2.27
2019-05-10T22:11:32.753Z,2.37
2019-05-10T22:14:00.618Z,2.45
2019-05-10T22:16:28.500Z,2.20
2019-05-10T22:19:03.234Z,2.60
2019-05-10T22:21:30.827Z,2.65
2019-05-10T22:23:58.721Z,2.60
2019-05-10T22:26:26.687Z,2.70
2019-05-10T22:28:54.747Z,3.15
2019-05-10T22:31:22.659Z,3.45
2019-05-10T22:33:51.985Z,3.30
2019-05-10T22:36:19.935Z,2.90
2019-05-10T22:38:47.922Z,2.90
2019-05-10T22:41:15.965Z,7.67
2019-05-10T22:43:43.945Z,13.32
2019-05-10T22:46:11.869Z,7.20
2019-05-10T22:48:39.802Z,4.95
2019-05-10T22:51:07.820Z,3.70
2019-05-10T22:53:38.059Z,3.00
2019-05-10T22:56:06.003Z,2.20
2019-05-10T22:58:33.874Z,2.50
2019-05-10T23:01:01.886Z,2.77
2019-05-10T23:03:29.866Z,2.70
2019-05-10T23:05:57.758Z,2.80
2019-05-10T23:08:25.671Z,2.90
2019-05-10T23:10:53.527Z,2.80
2019-05-10T23:13:21.415Z,2.67
2019-05-10T23:15:49.391Z,2.80
2019-05-10T23:18:17.272Z,2.42
2019-05-10T23:20:45.278Z,2.90
2019-05-10T23:23:13.323Z,2.65
2019-05-10T23:25:41.367Z,2.50
2019-05-10T23:28:09.240Z,2.75
2019-05-10T23:30:37.219Z,3.02
2019-05-10T23:33:05.095Z,2.80
2019-05-10T23:35:33.012Z,2.60
2019-05-10T23:38:00.954Z,3.35
2019-05-10T23:40:28.844Z,2.80
2019-05-10T23:42:56.709Z,2.90
2019-05-10T23:45:24.597Z,2.90
2019-05-10T23:47:52.548Z,2.87
2019-05-10T23:50:20.533Z,2.70
2019-05-10T23:52:48.383Z,2.98
2019-05-10T23:55:16.269Z,3.00
2019-05-10T23:57:44.192Z,2.70
